TimeCDT,TemperatureF,Dew PointF,Humidity,Sea Level PressureIn,VisibilityMPH,Wind Direction,Wind SpeedMPH,Gust SpeedMPH,PrecipitationIn,Events,Conditions,WindDirDegrees,DateUTC
12:53 AM,50.0,39.9,68,30.07,10.0,Calm,Calm,-,N/A,,Clear,0,2013-03-15 05:53:00
1:53 AM,52.0,37.9,59,30.05,10.0,Calm,Calm,-,N/A,,Clear,0,2013-03-15 06:53:00
2:53 AM,51.1,37.9,61,30.04,10.0,West,4.6,-,N/A,,Clear,270,2013-03-15 07:53:00
3:53 AM,44.1,37.9,79,30.01,10.0,WSW,3.5,-,N/A,,Clear,240,2013-03-15 08:53:00
4:53 AM,45.0,37.9,76,29.98,10.0,SW,4.6,-,N/A,,Clear,220,2013-03-15 09:53:00
5:53 AM,44.1,37.0,76,29.98,10.0,SSW,8.1,-,N/A,,Clear,210,2013-03-15 10:53:00
6:53 AM,41.0,37.0,86,29.98,10.0,SSW,4.6,-,N/A,,Clear,200,2013-03-15 11:53:00
7:53 AM,46.0,37.9,73,29.97,10.0,SW,15.0,-,N/A,,Clear,220,2013-03-15 12:53:00
8:53 AM,50.0,41.0,71,29.94,10.0,SSW,10.4,-,N/A,,Clear,200,2013-03-15 13:53:00
9:53 AM,55.9,43.0,62,29.93,10.0,SW,13.8,-,N/A,,Clear,220,2013-03-15 14:53:00
10:53 AM,62.1,45.0,53,29.90,10.0,SSW,11.5,-,N/A,,Clear,210,2013-03-15 15:53:00
11:53 AM,66.9,46.0,47,29.87,10.0,SW,12.7,-,N/A,,Clear,220,2013-03-15 16:53:00
12:53 PM,72.0,46.9,41,29.84,10.0,SSW,15.0,-,N/A,,Clear,210,2013-03-15 17:53:00
1:53 PM,73.9,46.9,38,29.81,10.0,SW,15.0,-,N/A,,Clear,230,2013-03-15 18:53:00
2:53 PM,75.0,46.9,37,29.75,10.0,SSW,13.8,-,N/A,,Clear,210,2013-03-15 19:53:00
3:53 PM,78.1,46.9,33,29.73,10.0,SW,16.1,25.3,N/A,,Clear,230,2013-03-15 20:53:00
4:53 PM,77.0,46.0,33,29.72,10.0,SW,15.0,-,N/A,,Clear,220,2013-03-15 21:53:00
5:53 PM,73.9,46.9,38,29.71,10.0,SW,12.7,-,N/A,,Clear,220,2013-03-15 22:53:00
6:53 PM,72.0,46.9,41,29.70,10.0,SW,13.8,-,N/A,,Clear,220,2013-03-15 23:53:00
7:53 PM,69.1,46.0,44,29.70,10.0,SSW,12.7,-,N/A,,Clear,210,2013-03-16 00:53:00
8:53 PM,66.0,46.9,50,29.69,10.0,SSW,11.5,-,N/A,,Clear,210,2013-03-16 01:53:00
9:53 PM,64.9,48.0,54,29.68,10.0,SSW,11.5,-,N/A,,Clear,210,2013-03-16 02:53:00
10:53 PM,64.0,46.9,54,29.68,10.0,SW,11.5,-,N/A,,Clear,220,2013-03-16 03:53:00
11:53 PM,64.9,46.9,52,29.68,10.0,SW,15.0,-,N/A,,Clear,220,2013-03-16 04:53:00